Terminal Aerodrome Forecast
Issued by NWS Jackson, KY

Home | Current Version | Previous Version | Text Only | Print | Product List | Glossary On
Versions: 1 2 3 4 5 6 7 8 9 10 11 12 13 14 15 16 17 18
000
FTUS43 KJKL 292346
TAFJKL
TAF
KJKL 292346Z 3000/3024 30007G15KT 6SM -TSRA BKN035CB OVC050
     FM300005 VRB04KT P6SM VCSH SCT045 BKN080
     FM300300 VRB03KT 3SM BR SCT050
     FM300600 VRB03KT 2SM BR FEW001 SCT050
     FM301200 VRB03KT P6SM SCT050
     FM301600 26007KT P6SM VCTS SCT050CB=

USA.gov is the U.S. government's official web portal to all federal, state and local government web resources and services.